Airfield :
LOGIN :

Register | Disclaimer

   EN    FR    IT 

 










Legend :    VFR   Marginal VFR   IFR   Intensive IFR   Very Intensive IFR
Visi :
Ceiling :
>= 8 km
>= 3000ft
5 to 8 km
1000 to 3000 ft
1500m to 5 km
500 to 1000 ft
800 to 1500m
200 to 500 ft
< 800m
< 200 ft
Symbols :   Thunderstorms  Fog  Heavy snow  Heavy precipitations  Wind > 20 kt
SIGMETs :     Misc.  Thunderstorms  Icing  Turbulence  Mountain Waves  Volcanic Ashes







- Airport Elevation : 1058 ft
- IATA code : SCN


EDDR - Saarbrücken

CURRENT METAR :
  • 180650Z 21009KT 3000 -SN BR BKN003 BKN005 M00/M00 Q1018 R27/520194 BECMG 4000 SCT004 BKN006

EXPIRED METARs :
  • 180620Z 22011KT 2500 -SN BR BKN004 BKN006 M00/M01 Q1018 R/SNOCLO BECMG 4000 SCT004 BKN006
  • 180550Z 21011KT 1500 -SN BR BKN004 BKN006 M00/M01 Q1018 R/SNOCLO TEMPO 1200
  • 180520Z 21010KT 1500 -SN BR BKN004 BKN006 M00/M01 Q1018 TEMPO 1200
  • 180450Z 21009KT 170V240 2000 -SN BKN004 M00/M01 Q1018 NOSIG
  • 180420Z 20011KT 1500 -SN FEW003 BKN005 M00/M01 Q1019 RESN

TAF TAF EDDR
Valid from the 18 at 06:00 until the 19 at 06:00 UTC


180500Z 1806/1906 21009KT 6000 BKN010
TEMPO 1806/1810 2000 SN OVC004
PROB30
TEMPO 1806/1808 0900 +SN BKN001
TEMPO 1810/1812 4500 RASN BKN008
BECMG 1811/1814 32005KT
TEMPO 1813/1816 BKN015
PROB30
TEMPO 1818/1906 3500 BR BKN006
No reported NOTAMs for that airfield.
2 SIGMETs reported for the Langen FIR (EDGG) :
 
Severe icing
EDGG SIGMET 2 VALID 180704/180900 EDZF
EDGG LANGEN FIR SEV ICE FCST S OF N5025 AND W OF E00820 1000FT/FL100 STNR WKN=
Severe icing
EDGG SIGMET 1 VALID 180300/180700 EDZF
EDGG LANGEN FIR SEV ICE FCST WI N5128 E00539 - N5115 E00954 - N4909 E00859 - N4714 E00744 - N4903 E00647 - N5128 E00539 1000FT/FL130 MOV SE NC=



MET'MAP, your aeronautical weather chart ! - Copyright ORBIFLY December 2007 - Disclaimer

ORBIFLY MET'MAP TEAM :

Programming & Development : Alexandra Zaïnal
Concept & Development : Baudouin d'Aumeries
Co-Development & Prog : Marc-Olivier Méhu
Technical & hardware support : Manuel Goepfert

Contact : metmap@orbifly.com




SOURCES & CREDITS :

   NOAA